createdAt,value
2022-09-30T00:02:12.227Z,89.00
2022-09-30T00:04:43.618Z,89.05
2022-09-30T00:07:14.945Z,89.00
2022-09-30T00:09:47.969Z,89.19
2022-09-30T00:12:19.694Z,89.22
2022-09-30T00:14:51.027Z,89.19
2022-09-30T00:17:23.362Z,88.88
2022-09-30T00:19:54.654Z,89.03
2022-09-30T00:22:25.976Z,89.28
2022-09-30T00:24:57.291Z,89.17
2022-09-30T00:27:28.855Z,89.69
2022-09-30T00:30:00.180Z,89.27
2022-09-30T00:32:31.521Z,89.01
2022-09-30T00:35:02.951Z,88.94
2022-09-30T00:37:34.281Z,89.23
2022-09-30T00:40:06.082Z,89.56
2022-09-30T00:42:40.956Z,89.27
2022-09-30T00:45:13.629Z,89.22
2022-09-30T00:48:11.340Z,89.60
2022-09-30T00:50:47.057Z,89.17
2022-09-30T00:53:30.017Z,89.45
2022-09-30T00:56:07.401Z,89.50
2022-09-30T00:59:02.329Z,89.44
2022-09-30T01:01:35.994Z,89.42
2022-09-30T01:04:13.222Z,89.86
2022-09-30T01:06:44.590Z,89.84
2022-09-30T01:09:16.936Z,89.87
2022-09-30T01:11:48.600Z,90.03
2022-09-30T01:14:23.358Z,90.03
2022-09-30T01:17:20.725Z,89.81
2022-09-30T01:20:29.367Z,90.33
2022-09-30T01:23:33.135Z,90.35
2022-09-30T01:26:36.894Z,90.04
2022-09-30T01:29:33.629Z,90.11
2022-09-30T01:32:31.538Z,90.25
2022-09-30T01:35:15.406Z,90.59
2022-09-30T01:37:49.409Z,90.52
2022-09-30T01:40:26.824Z,91.05
2022-09-30T01:43:11.887Z,90.94
2022-09-30T01:46:00.101Z,91.23
2022-09-30T01:48:53.343Z,91.66
2022-09-30T01:51:38.193Z,91.61
2022-09-30T01:54:37.661Z,91.71
2022-09-30T01:57:24.509Z,92.10
2022-09-30T02:00:07.303Z,92.40
2022-09-30T02:02:46.683Z,92.32
2022-09-30T02:05:24.601Z,92.36
2022-09-30T02:08:07.856Z,91.98
2022-09-30T02:10:47.386Z,92.22
2022-09-30T02:13:24.588Z,92.01
2022-09-30T02:16:01.222Z,92.51
2022-09-30T02:18:42.116Z,92.07
2022-09-30T02:21:17.637Z,92.31
2022-09-30T02:23:54.206Z,91.60
2022-09-30T02:26:29.617Z,91.33
2022-09-30T02:29:05.812Z,90.98
2022-09-30T02:31:42.848Z,91.09
2022-09-30T02:34:26.996Z,90.98
2022-09-30T02:37:14.638Z,91.54
2022-09-30T02:40:07.766Z,91.44
2022-09-30T02:42:41.464Z,91.60
2022-09-30T02:45:16.708Z,91.67
2022-09-30T02:47:58.821Z,91.54
2022-09-30T02:50:33.018Z,91.56
2022-09-30T02:53:18.490Z,91.52
2022-09-30T02:56:16.729Z,91.48
2022-09-30T02:58:50.866Z,90.83
2022-09-30T03:01:22.718Z,91.21
2022-09-30T03:03:58.873Z,91.06
2022-09-30T03:06:30.394Z,90.89
2022-09-30T03:09:01.771Z,90.95
2022-09-30T03:11:33.207Z,90.68
2022-09-30T03:14:32.811Z,91.22
2022-09-30T03:17:28.895Z,90.97
2022-09-30T03:20:25.680Z,91.12
2022-09-30T03:23:37.880Z,91.25
2022-09-30T03:26:39.777Z,90.82
2022-09-30T03:29:28.164Z,91.04
2022-09-30T03:32:21.065Z,91.13
2022-09-30T03:35:24.838Z,91.20
2022-09-30T03:38:23.898Z,90.89
2022-09-30T03:41:08.323Z,91.18
2022-09-30T03:43:55.810Z,91.37
2022-09-30T03:46:34.715Z,91.05
2022-09-30T03:49:10.776Z,91.23
2022-09-30T03:51:42.496Z,90.75
2022-09-30T03:54:14.543Z,90.78
2022-09-30T03:56:45.806Z,90.84
2022-09-30T03:59:24.208Z,90.69
2022-09-30T04:01:57.436Z,90.53
2022-09-30T04:04:28.753Z,90.81
2022-09-30T04:07:00.246Z,90.96
2022-09-30T04:09:31.568Z,91.32
2022-09-30T04:12:03.938Z,90.68
2022-09-30T04:14:35.814Z,90.58
2022-09-30T04:17:07.110Z,90.88
2022-09-30T04:19:40.212Z,90.98
2022-09-30T04:22:11.652Z,91.08
2022-09-30T04:24:43.811Z,91.43
2022-09-30T04:27:15.230Z,91.62
2022-09-30T04:29:46.551Z,91.88
2022-09-30T04:32:17.866Z,91.90
2022-09-30T04:34:49.122Z,91.94
2022-09-30T04:37:21.173Z,91.95
2022-09-30T04:39:52.570Z,92.05
2022-09-30T04:42:24.311Z,91.33
2022-09-30T04:44:55.721Z,91.66
2022-09-30T04:47:27.016Z,91.29
2022-09-30T04:49:58.306Z,91.26
2022-09-30T04:52:29.605Z,91.22
2022-09-30T04:55:00.874Z,91.03
2022-09-30T04:57:32.193Z,90.71
2022-09-30T05:00:05.350Z,90.72
2022-09-30T05:02:36.658Z,90.85
2022-09-30T05:05:08.424Z,90.87
2022-09-30T05:07:40.649Z,90.80
2022-09-30T05:10:12.553Z,90.59
2022-09-30T05:12:45.101Z,90.40
2022-09-30T05:15:16.504Z,90.54
2022-09-30T05:17:50.896Z,90.49
2022-09-30T05:20:22.227Z,90.91
2022-09-30T05:22:56.931Z,91.03
2022-09-30T05:25:28.425Z,90.86
2022-09-30T05:27:59.878Z,90.85
2022-09-30T05:30:31.198Z,90.79
2022-09-30T05:33:02.468Z,90.77
2022-09-30T05:35:34.745Z,90.72
2022-09-30T05:38:06.032Z,90.54
2022-09-30T05:40:41.443Z,90.37
2022-09-30T05:43:12.817Z,90.87
2022-09-30T05:45:55.255Z,90.62
2022-09-30T05:48:27.394Z,90.49
2022-09-30T05:51:00.843Z,90.58
2022-09-30T05:53:32.933Z,90.72
2022-09-30T05:56:08.860Z,91.30
2022-09-30T05:58:41.879Z,90.72
2022-09-30T06:01:15.103Z,91.04
2022-09-30T06:03:47.457Z,91.14
2022-09-30T06:06:22.016Z,91.57
2022-09-30T06:08:53.305Z,91.55
2022-09-30T06:11:25.159Z,91.95
2022-09-30T06:13:57.290Z,92.38
2022-09-30T06:16:28.691Z,92.37
2022-09-30T06:18:59.969Z,92.61
2022-09-30T06:21:31.447Z,92.97
2022-09-30T06:24:03.138Z,92.58
2022-09-30T06:26:34.384Z,92.62
2022-09-30T06:29:05.762Z,93.06
2022-09-30T06:31:37.262Z,93.70
2022-09-30T06:34:10.497Z,93.60
2022-09-30T06:36:41.935Z,94.00
2022-09-30T06:39:13.861Z,93.59
2022-09-30T06:41:45.341Z,93.89
2022-09-30T06:44:16.763Z,94.08
2022-09-30T06:46:53.664Z,94.38
2022-09-30T06:49:32.962Z,94.14
2022-09-30T06:52:12.568Z,94.10
2022-09-30T06:54:44.101Z,94.61
2022-09-30T06:57:15.414Z,94.26
2022-09-30T06:59:47.132Z,94.11
2022-09-30T07:02:18.815Z,94.45
2022-09-30T07:04:50.225Z,94.25
2022-09-30T07:07:22.026Z,94.73
2022-09-30T07:09:58.853Z,94.16
2022-09-30T07:12:30.964Z,94.59
2022-09-30T07:15:02.382Z,94.61
2022-09-30T07:17:33.705Z,94.04
2022-09-30T07:20:05.402Z,94.25
2022-09-30T07:22:36.678Z,94.30
2022-09-30T07:25:09.668Z,94.00
2022-09-30T07:27:41.285Z,94.18
2022-09-30T07:30:20.388Z,94.01
2022-09-30T07:32:56.004Z,93.93
2022-09-30T07:35:27.341Z,93.71
2022-09-30T07:37:59.755Z,93.40
2022-09-30T07:40:31.293Z,93.08
2022-09-30T07:43:03.155Z,92.99
2022-09-30T07:45:37.689Z,92.75
2022-09-30T07:48:29.019Z,92.48
2022-09-30T07:51:00.447Z,92.41
2022-09-30T07:53:32.379Z,91.91
2022-09-30T07:56:08.168Z,91.86
2022-09-30T07:58:39.553Z,91.80
2022-09-30T08:01:11.942Z,91.38
2022-09-30T08:03:44.933Z,91.75
2022-09-30T08:06:18.285Z,90.81
2022-09-30T08:08:52.557Z,90.89
2022-09-30T08:11:24.942Z,91.00
2022-09-30T08:13:56.838Z,90.45
2022-09-30T08:16:28.196Z,90.51
2022-09-30T08:19:02.382Z,89.72
2022-09-30T08:21:33.646Z,89.32
2022-09-30T08:24:05.156Z,89.44
2022-09-30T08:26:36.744Z,89.06
2022-09-30T08:29:12.384Z,88.38
2022-09-30T08:31:45.588Z,87.92
2022-09-30T08:34:17.554Z,87.88
2022-09-30T08:36:48.806Z,87.65
2022-09-30T08:39:20.126Z,86.75
2022-09-30T08:42:35.574Z,86.62
2022-09-30T08:45:20.038Z,85.92
2022-09-30T08:48:02.959Z,85.77
2022-09-30T08:51:03.225Z,85.33
2022-09-30T08:53:41.241Z,85.83
2022-09-30T08:56:25.646Z,85.07
2022-09-30T08:59:06.800Z,84.86
2022-09-30T09:01:42.733Z,84.62
2022-09-30T09:04:14.834Z,84.40
2022-09-30T09:07:01.330Z,83.46
2022-09-30T09:09:42.610Z,83.72
2022-09-30T09:12:40.357Z,84.11
2022-09-30T09:15:23.721Z,83.76
2022-09-30T09:18:23.769Z,82.88
2022-09-30T09:21:03.664Z,82.94
2022-09-30T09:23:35.606Z,82.21
2022-09-30T09:26:09.393Z,82.11
2022-09-30T09:29:15.184Z,80.47
2022-09-30T09:31:48.236Z,80.49
2022-09-30T09:34:19.665Z,80.12
2022-09-30T09:37:08.475Z,79.23
2022-09-30T09:40:04.176Z,78.93
2022-09-30T09:43:09.907Z,79.25
2022-09-30T09:46:04.132Z,78.99
2022-09-30T09:48:35.933Z,78.64
2022-09-30T09:51:28.605Z,78.62
2022-09-30T09:54:04.941Z,78.43
2022-09-30T09:56:37.768Z,77.97
2022-09-30T09:59:15.986Z,77.63
2022-09-30T10:01:54.061Z,77.25
2022-09-30T10:04:29.446Z,76.08
2022-09-30T10:07:21.891Z,77.63
2022-09-30T10:10:23.574Z,76.43
2022-09-30T10:12:55.566Z,76.84
2022-09-30T10:15:27.456Z,76.88
2022-09-30T10:18:00.835Z,76.58
2022-09-30T10:20:34.802Z,75.85
2022-09-30T10:23:19.856Z,74.55
2022-09-30T10:26:03.627Z,74.53
2022-09-30T10:28:50.364Z,74.42
2022-09-30T10:31:33.164Z,74.33
2022-09-30T10:34:28.726Z,72.85
2022-09-30T10:37:14.394Z,72.93
2022-09-30T10:39:55.462Z,73.52
2022-09-30T10:42:31.235Z,73.70
2022-09-30T10:45:17.934Z,72.69
2022-09-30T10:47:55.333Z,73.12
2022-09-30T10:50:27.699Z,72.43
2022-09-30T10:53:04.469Z,72.23
2022-09-30T10:55:42.978Z,72.27
2022-09-30T10:58:25.865Z,71.51
2022-09-30T11:01:09.315Z,71.13
2022-09-30T11:03:54.675Z,69.86
2022-09-30T11:06:28.548Z,69.55
2022-09-30T11:09:20.413Z,69.40
2022-09-30T11:11:57.599Z,69.26
2022-09-30T11:14:43.367Z,68.57
2022-09-30T11:17:25.867Z,68.16
2022-09-30T11:20:10.746Z,67.42
2022-09-30T11:22:51.554Z,67.61
2022-09-30T11:26:01.353Z,67.50
2022-09-30T11:29:03.213Z,67.54
2022-09-30T11:31:56.384Z,67.13
2022-09-30T11:34:47.078Z,66.81
2022-09-30T11:37:33.462Z,67.01
2022-09-30T11:40:29.364Z,67.03
2022-09-30T11:43:14.071Z,67.68
2022-09-30T11:46:08.847Z,67.42
2022-09-30T11:49:00.238Z,66.51
2022-09-30T11:51:43.920Z,66.18
2022-09-30T11:54:33.469Z,65.63
2022-09-30T11:57:13.679Z,65.76
2022-09-30T11:59:58.104Z,65.27
2022-09-30T12:02:37.598Z,64.85
2022-09-30T12:05:34.211Z,64.20
2022-09-30T12:08:19.811Z,63.56
2022-09-30T12:10:55.618Z,63.97
2022-09-30T12:13:29.725Z,64.75
2022-09-30T12:16:04.678Z,66.12
2022-09-30T12:18:41.114Z,65.73
2022-09-30T12:21:21.848Z,64.63
2022-09-30T12:24:03.452Z,64.08
2022-09-30T12:26:35.152Z,64.14
2022-09-30T12:29:48.564Z,64.06
2022-09-30T12:32:36.180Z,64.23
2022-09-30T12:35:37.851Z,62.90
2022-09-30T12:38:43.154Z,62.66
2022-09-30T12:41:40.979Z,63.24
2022-09-30T12:44:41.154Z,62.52
2022-09-30T12:47:24.235Z,63.16
2022-09-30T12:49:59.160Z,63.28
2022-09-30T12:52:33.534Z,63.64
2022-09-30T12:55:28.062Z,62.45
2022-09-30T12:58:03.168Z,63.88
2022-09-30T13:00:36.129Z,63.37
2022-09-30T13:03:15.362Z,63.08
2022-09-30T13:05:56.199Z,63.30
2022-09-30T13:08:44.120Z,62.62
2022-09-30T13:11:42.746Z,62.31
2022-09-30T13:14:37.737Z,62.58
2022-09-30T13:17:09.338Z,63.58
2022-09-30T13:19:45.494Z,62.77
2022-09-30T13:22:19.939Z,62.51
2022-09-30T13:25:00.545Z,62.31
2022-09-30T13:27:44.286Z,61.77
2022-09-30T13:30:15.583Z,62.11
2022-09-30T13:32:57.477Z,61.85
2022-09-30T13:35:40.705Z,61.42
2022-09-30T13:38:12.136Z,61.95
2022-09-30T13:41:01.812Z,61.39
2022-09-30T13:43:39.548Z,62.41
2022-09-30T13:46:16.730Z,61.95
2022-09-30T13:48:53.322Z,62.47
2022-09-30T13:51:27.838Z,61.86
2022-09-30T13:54:06.779Z,61.81
2022-09-30T13:56:40.728Z,61.90
2022-09-30T13:59:41.566Z,61.58
2022-09-30T14:02:31.657Z,62.50
2022-09-30T14:05:15.473Z,61.71
2022-09-30T14:08:31.727Z,61.31
2022-09-30T14:11:22.480Z,61.14
2022-09-30T14:14:27.881Z,61.05
2022-09-30T14:17:34.331Z,61.54
2022-09-30T14:20:24.045Z,61.67
2022-09-30T14:22:56.666Z,61.38
2022-09-30T14:25:38.690Z,60.74
2022-09-30T14:28:17.708Z,60.97
2022-09-30T14:31:08.085Z,60.51
2022-09-30T14:33:42.670Z,61.10
2022-09-30T14:36:18.846Z,60.79
2022-09-30T14:38:58.517Z,60.49
2022-09-30T14:41:31.330Z,60.05
2022-09-30T14:44:08.069Z,60.96
2022-09-30T14:46:43.249Z,60.74
2022-09-30T14:49:19.476Z,61.59
2022-09-30T14:51:51.079Z,60.84
2022-09-30T14:54:26.496Z,61.23
2022-09-30T14:57:01.505Z,61.21
2022-09-30T14:59:36.653Z,61.24
2022-09-30T15:02:18.337Z,60.85
2022-09-30T15:04:52.737Z,60.76
2022-09-30T15:07:24.082Z,61.36
2022-09-30T15:10:01.607Z,61.13
2022-09-30T15:12:36.965Z,61.50
2022-09-30T15:15:37.789Z,61.83
2022-09-30T15:18:45.940Z,61.68
2022-09-30T15:21:17.521Z,62.90
2022-09-30T15:23:52.344Z,62.63
2022-09-30T15:26:25.612Z,62.35
2022-09-30T15:28:57.889Z,61.73
2022-09-30T15:31:31.703Z,62.10
2022-09-30T15:34:24.291Z,62.13
2022-09-30T15:37:10.476Z,62.08
2022-09-30T15:40:05.408Z,62.32
2022-09-30T15:42:45.896Z,62.25
2022-09-30T15:45:18.495Z,62.29
2022-09-30T15:47:56.382Z,62.51
2022-09-30T15:50:38.147Z,62.51
2022-09-30T15:53:25.392Z,62.77
2022-09-30T15:55:59.396Z,63.17
2022-09-30T15:58:39.310Z,63.31
2022-09-30T16:01:21.411Z,63.40
2022-09-30T16:04:02.576Z,63.56
2022-09-30T16:06:43.070Z,63.92
2022-09-30T16:09:20.045Z,63.90
2022-09-30T16:12:12.514Z,64.29
2022-09-30T16:14:50.838Z,64.61
2022-09-30T16:17:29.265Z,65.00
2022-09-30T16:20:07.765Z,65.25
2022-09-30T16:22:41.851Z,65.34
2022-09-30T16:25:31.912Z,65.60
2022-09-30T16:28:14.850Z,65.99
2022-09-30T16:30:50.043Z,66.59
2022-09-30T16:33:21.433Z,66.64
2022-09-30T16:35:52.723Z,66.96
2022-09-30T16:38:24.018Z,67.79
2022-09-30T16:40:55.572Z,67.74
2022-09-30T16:43:26.886Z,68.15
2022-09-30T16:45:59.805Z,68.56
2022-09-30T16:48:31.489Z,68.59
2022-09-30T16:51:16.888Z,69.16
2022-09-30T16:53:48.225Z,69.15
2022-09-30T16:56:19.985Z,69.12
2022-09-30T16:58:51.349Z,69.98
2022-09-30T17:01:25.538Z,69.98
2022-09-30T17:03:57.783Z,70.41
2022-09-30T17:06:32.093Z,70.51
2022-09-30T17:09:04.835Z,71.04
2022-09-30T17:11:38.013Z,71.34
2022-09-30T17:14:09.762Z,71.61
2022-09-30T17:16:41.161Z,71.72
2022-09-30T17:19:13.512Z,72.30
2022-09-30T17:21:44.992Z,72.29
2022-09-30T17:24:16.693Z,72.65
2022-09-30T17:26:48.019Z,73.01
2022-09-30T17:29:31.859Z,73.05
2022-09-30T17:32:03.977Z,73.10
2022-09-30T17:34:35.345Z,73.57
2022-09-30T17:39:42.885Z,73.89
2022-09-30T17:42:33.990Z,74.08
2022-09-30T17:45:05.893Z,74.38
2022-09-30T17:47:39.566Z,74.42
2022-09-30T17:50:12.800Z,74.96
2022-09-30T17:52:44.205Z,75.04
2022-09-30T17:55:15.585Z,75.14
2022-09-30T17:57:46.853Z,75.09
2022-09-30T18:00:19.267Z,75.32
2022-09-30T18:02:50.528Z,75.31
2022-09-30T18:05:23.344Z,75.86
2022-09-30T18:07:54.684Z,76.06
2022-09-30T18:10:27.132Z,76.37
2022-09-30T18:12:59.630Z,76.37
2022-09-30T18:15:31.113Z,76.12
2022-09-30T18:18:02.370Z,76.52
2022-09-30T18:20:33.637Z,76.29
2022-09-30T18:23:04.998Z,76.81
2022-09-30T18:25:36.580Z,76.82
2022-09-30T18:28:08.754Z,77.06
2022-09-30T18:30:40.339Z,77.13
2022-09-30T18:33:11.835Z,76.71
2022-09-30T18:35:43.411Z,76.75
2022-09-30T18:38:14.948Z,77.24
2022-09-30T18:40:46.327Z,77.25
2022-09-30T18:43:17.680Z,76.81
2022-09-30T18:45:53.946Z,77.20
2022-09-30T18:48:26.304Z,76.88
2022-09-30T18:51:03.209Z,77.22
2022-09-30T18:53:34.785Z,76.92
2022-09-30T18:56:06.340Z,77.33
2022-09-30T18:58:39.310Z,77.22
2022-09-30T19:01:11.138Z,77.22
2022-09-30T19:03:42.557Z,76.99
2022-09-30T19:06:14.885Z,77.27
2022-09-30T19:08:46.159Z,77.11
2022-09-30T19:11:18.517Z,76.86
2022-09-30T19:13:52.530Z,77.33
2022-09-30T19:16:25.965Z,77.36
2022-09-30T19:19:01.301Z,77.02
2022-09-30T19:21:36.757Z,77.72
2022-09-30T19:24:09.071Z,77.79
2022-09-30T19:26:40.808Z,77.47
2022-09-30T19:29:12.179Z,77.47
2022-09-30T19:31:45.219Z,77.36
2022-09-30T19:34:29.822Z,77.37
2022-09-30T19:37:03.406Z,77.38
2022-09-30T19:39:44.632Z,78.01
2022-09-30T19:42:18.267Z,77.51
2022-09-30T19:44:49.787Z,77.47
2022-09-30T19:47:21.099Z,78.25
2022-09-30T19:49:55.147Z,78.34
2022-09-30T19:52:27.470Z,78.19
2022-09-30T19:55:09.515Z,78.27
2022-09-30T19:57:44.720Z,78.38
2022-09-30T20:00:16.050Z,77.95
2022-09-30T20:02:47.440Z,77.97
2022-09-30T20:05:18.770Z,78.36
2022-09-30T20:07:51.160Z,78.40
2022-09-30T20:10:23.966Z,78.13
2022-09-30T20:12:55.263Z,78.58
2022-09-30T20:15:46.348Z,78.01
2022-09-30T20:18:19.671Z,78.50
2022-09-30T20:20:50.982Z,78.21
2022-09-30T20:23:22.380Z,78.64
2022-09-30T20:25:54.120Z,78.56
2022-09-30T20:28:25.433Z,78.62
2022-09-30T20:30:56.836Z,78.91
2022-09-30T20:33:28.184Z,78.46
2022-09-30T20:36:01.349Z,78.84
2022-09-30T20:38:33.396Z,78.65
2022-09-30T20:41:05.910Z,78.60
2022-09-30T20:43:37.177Z,79.04
2022-09-30T20:46:09.478Z,78.72
2022-09-30T20:48:41.150Z,78.83
2022-09-30T20:51:14.798Z,78.87
2022-09-30T20:53:50.871Z,78.95
2022-09-30T20:56:23.978Z,78.93
2022-09-30T20:58:55.230Z,79.24
2022-09-30T21:01:26.569Z,78.96
2022-09-30T21:03:57.922Z,79.51
2022-09-30T21:06:30.084Z,79.26
2022-09-30T21:09:03.366Z,78.88
2022-09-30T21:11:35.095Z,79.32
2022-09-30T21:14:07.154Z,79.35
2022-09-30T21:16:38.615Z,78.83
2022-09-30T21:19:10.350Z,79.13
2022-09-30T21:21:41.594Z,79.43
2022-09-30T21:24:16.097Z,79.36
2022-09-30T21:26:47.367Z,79.29
2022-09-30T21:29:18.975Z,79.15
2022-09-30T21:31:50.378Z,79.21
2022-09-30T21:34:21.785Z,79.79
2022-09-30T21:36:53.268Z,79.48
2022-09-30T21:39:24.511Z,79.57
2022-09-30T21:41:55.883Z,79.30
2022-09-30T21:44:27.318Z,79.35
2022-09-30T21:46:58.576Z,79.58
2022-09-30T21:49:30.008Z,79.77
2022-09-30T21:52:01.673Z,79.27
2022-09-30T21:54:33.040Z,79.87
2022-09-30T21:57:05.267Z,79.94
2022-09-30T21:59:38.635Z,79.67
2022-09-30T22:02:10.977Z,79.85
2022-09-30T22:04:42.271Z,79.93
2022-09-30T22:07:15.344Z,79.59
2022-09-30T22:09:46.585Z,79.90
2022-09-30T22:12:17.873Z,80.06
2022-09-30T22:14:49.153Z,79.68
2022-09-30T22:17:20.406Z,79.94
2022-09-30T22:19:51.749Z,79.72
2022-09-30T22:22:24.677Z,79.64
2022-09-30T22:24:55.937Z,79.60
2022-09-30T22:27:27.293Z,79.61
2022-09-30T22:29:59.686Z,79.29
2022-09-30T22:32:31.099Z,79.56
2022-09-30T22:35:21.819Z,79.23
2022-09-30T22:38:11.763Z,78.92
2022-09-30T22:40:43.230Z,79.02
2022-09-30T22:43:15.214Z,79.54
2022-09-30T22:45:47.711Z,79.10
2022-09-30T22:48:19.233Z,78.68
2022-09-30T22:50:50.487Z,78.62
2022-09-30T22:53:21.808Z,78.98
2022-09-30T22:55:53.569Z,78.99
2022-09-30T22:58:26.190Z,79.27
2022-09-30T23:00:58.728Z,79.15
2022-09-30T23:03:30.090Z,78.91
2022-09-30T23:06:05.090Z,79.22
2022-09-30T23:08:41.651Z,79.01
2022-09-30T23:11:16.355Z,78.94
2022-09-30T23:13:47.702Z,79.19
2022-09-30T23:16:19.053Z,79.50
2022-09-30T23:18:50.581Z,79.36
2022-09-30T23:21:22.055Z,78.91
2022-09-30T23:23:53.713Z,79.05
2022-09-30T23:26:27.348Z,79.25
2022-09-30T23:29:04.347Z,78.74
2022-09-30T23:31:36.123Z,78.75
2022-09-30T23:34:07.832Z,78.96
2022-09-30T23:36:39.162Z,78.84
2022-09-30T23:39:19.371Z,78.53
2022-09-30T23:41:50.844Z,78.50
2022-09-30T23:44:22.123Z,78.52
2022-09-30T23:47:12.355Z,78.64
2022-09-30T23:49:43.820Z,78.53
2022-09-30T23:52:15.311Z,78.74
2022-09-30T23:54:47.119Z,78.78
2022-09-30T23:57:18.402Z,78.86
2022-09-30T23:59:49.699Z,78.83
